Time;durP1;ratioP1;P1;durP2;ratioP2;P2;SDS_P1;SDS_P2;PMS_P1;PMS_P2;Temp;Humidity;BMP_temperature;BMP_pressure;BME280_temperature;BME280_humidity;BME280_pressure;Samples;Min_cycle;Max_cycle;Signal;HPM_P1;HPM_P2
2022/12/03 00:00:06;;;;;;;31.08;13.90;;;6.80;99.90;;;;;;6187829;23;20013;-75
2022/12/03 00:02:39;;;;;;;29.77;14.07;;;5.40;99.90;;;;;;6170869;23;20019;-75
2022/12/03 00:05:07;;;;;;;32.95;13.07;;;5.40;99.90;;;;;;6187783;23;20020;-75
2022/12/03 00:07:35;;;;;;;;;;;5.40;99.90;;;;;;6197159;23;20021;-75
2022/12/03 00:10:04;;;;;;;31.00;11.98;;;5.40;99.90;;;;;;6160543;23;19923;-75
2022/12/03 00:12:31;;;;;;;29.38;13.38;;;5.40;99.90;;;;;;6187636;23;20021;-75
2022/12/03 00:14:59;;;;;;;34.03;13.23;;;5.40;99.90;;;;;;6162835;23;20036;-75
2022/12/03 00:17:26;;;;;;;29.98;12.93;;;5.40;99.90;;;;;;6160661;23;20024;-76
2022/12/03 00:19:54;;;;;;;33.22;13.80;;;7.40;99.90;;;;;;6161966;23;20017;-76
2022/12/03 00:22:22;;;;;;;28.73;13.20;;;7.00;99.90;;;;;;6161596;23;20013;-75
2022/12/03 00:24:49;;;;;;;30.27;12.57;;;6.10;99.90;;;;;;6135583;23;20028;-75
2022/12/03 00:27:17;;;;;;;25.33;12.77;;;5.50;99.90;;;;;;6172419;23;20013;-75
2022/12/03 00:29:45;;;;;;;25.67;12.18;;;6.00;99.90;;;;;;6160579;23;20028;-75
2022/12/03 00:32:13;;;;;;;27.20;11.98;;;5.50;99.90;;;;;;6161980;23;20017;-75
2022/12/03 00:34:40;;;;;;;26.30;11.90;;;7.10;99.90;;;;;;6187423;23;20013;-76
2022/12/03 00:37:08;;;;;;;26.85;11.88;;;5.50;99.90;;;;;;6196040;23;20009;-75
2022/12/03 00:39:35;;;;;;;22.73;11.77;;;5.70;99.90;;;;;;6187576;23;20028;-75
2022/12/03 00:42:03;;;;;;;19.83;10.38;;;5.60;99.90;;;;;;6186485;23;20013;-75
2022/12/03 00:44:30;;;;;;;23.75;10.77;;;5.60;99.90;;;;;;6135435;23;20039;-75
2022/12/03 00:46:58;;;;;;;22.20;9.82;;;5.70;99.90;;;;;;6197548;23;20020;-75
2022/12/03 00:49:26;;;;;;;20.92;9.80;;;5.60;99.90;;;;;;6160201;23;20031;-76
2022/12/03 00:51:53;;;;;;;22.65;9.23;;;5.60;99.90;;;;;;6161259;23;20028;-76
2022/12/03 00:54:21;;;;;;;21.13;9.48;;;5.60;99.90;;;;;;6187978;23;20013;-75
2022/12/03 00:56:57;;;;;;;23.77;10.20;;;5.60;99.90;;;;;;6134119;23;20014;-75
2022/12/03 00:59:25;;;;;;;22.10;10.15;;;7.10;99.90;;;;;;6158022;23;20021;-76
2022/12/03 01:01:53;;;;;;;27.02;11.18;;;5.60;99.90;;;;;;6157722;23;20010;-76
2022/12/03 01:04:20;;;;;;;23.25;10.70;;;5.60;99.90;;;;;;6106077;23;20296;-75
2022/12/03 01:06:48;;;;;;;24.52;11.32;;;5.60;99.90;;;;;;6108234;23;20327;-76
2022/12/03 01:09:15;;;;;;;27.35;12.13;;;6.70;99.90;;;;;;6132053;23;20018;-76
2022/12/03 01:11:43;;;;;;;26.90;12.50;;;5.60;99.90;;;;;;6157456;23;20311;-76
2022/12/03 01:14:13;;;;;;;29.73;12.70;;;6.70;99.90;;;;;;6132030;23;20014;-76
2022/12/03 01:16:42;;;;;;;28.77;12.85;;;7.10;99.90;;;;;;6165849;23;20021;-76
2022/12/03 01:19:14;;;;;;;30.30;12.85;;;5.60;99.90;;;;;;6132059;23;20318;-76
2022/12/03 01:21:44;;;;;;;25.50;12.45;;;5.60;99.90;;;;;;6167491;23;20013;-75
2022/12/03 01:24:12;;;;;;;26.98;11.88;;;5.60;99.90;;;;;;6106092;23;20017;-76
2022/12/03 01:26:39;;;;;;;30.52;12.75;;;5.60;99.90;;;;;;6131976;23;20074;-76
2022/12/03 01:29:07;;;;;;;31.95;13.52;;;6.20;99.90;;;;;;6157529;23;20419;-76
2022/12/03 01:34:21;;;;;;;24.88;11.38;;;5.60;99.90;;;;;;6167594;23;20419;-76
2022/12/03 01:36:51;;;;;;;29.02;13.27;;;7.20;99.90;;;;;;6106259;23;20014;-76
2022/12/03 01:39:19;;;;;;;34.38;14.32;;;7.60;99.90;;;;;;6156488;23;20464;-76
2022/12/03 01:41:49;;;;;;;29.85;15.13;;;7.40;99.90;;;;;;6131678;23;20029;-76
2022/12/03 01:44:22;;;;;;;35.47;14.45;;;6.20;99.90;;;;;;6130340;23;20021;-76
2022/12/03 01:46:51;;;;;;;31.85;15.63;;;5.50;99.90;;;;;;6166506;23;20028;-76
2022/12/03 01:49:23;;;;;;;39.55;16.13;;;5.50;99.90;;;;;;6131114;23;20095;-76
2022/12/03 01:51:52;;;;;;;36.83;15.38;;;5.50;99.90;;;;;;6131825;23;20018;-76
2022/12/03 01:54:25;;;;;;;29.85;14.25;;;5.50;99.90;;;;;;6157600;23;20025;-76
2022/12/03 01:56:54;;;;;;;37.10;16.63;;;5.50;99.90;;;;;;6183802;23;20017;-76
2022/12/03 01:59:31;;;;;;;35.22;15.40;;;5.40;99.90;;;;;;6161556;23;20013;-76
2022/12/03 02:02:07;;;;;;;36.40;16.40;;;6.10;99.90;;;;;;6161485;23;20025;-76
2022/12/03 02:04:34;;;;;;;37.25;16.40;;;5.40;99.90;;;;;;6169687;23;20656;-76
2022/12/03 02:07:34;;;;;;;34.50;16.58;;;5.40;99.90;;;;;;6198392;23;20020;-76
2022/12/03 02:10:03;;;;;;;34.58;15.60;;;7.30;99.90;;;;;;6124603;23;20021;-76
2022/12/03 02:12:33;;;;;;;38.20;15.90;;;5.40;99.90;;;;;;6163060;23;20028;-76
2022/12/03 02:15:01;;;;;;;33.70;15.13;;;5.70;99.90;;;;;;6162715;23;20028;-76
2022/12/03 02:17:28;;;;;;;33.10;14.40;;;5.40;99.90;;;;;;6171665;23;20013;-76
2022/12/03 02:19:57;;;;;;;35.38;15.52;;;5.70;99.90;;;;;;6162945;23;20013;-75
2022/12/03 02:22:40;;;;;;;37.22;17.35;;;5.40;99.90;;;;;;6188663;23;20009;-76
2022/12/03 02:25:13;;;;;;;35.85;16.13;;;5.30;99.90;;;;;;6162883;23;20021;-76
2022/12/03 02:27:41;;;;;;;32.25;15.73;;;7.60;99.90;;;;;;6198510;23;20032;-76
2022/12/03 02:30:11;;;;;;;37.92;15.73;;;5.40;99.90;;;;;;6187453;23;20013;-76
2022/12/03 02:32:39;;;;;;;34.40;16.55;;;5.40;99.90;;;;;;6162423;23;20024;-76
2022/12/03 02:35:13;;;;;;;;;;;5.40;99.90;;;;;;6163395;23;20025;-76
2022/12/03 02:37:41;;;;;;;38.72;15.88;;;5.30;99.90;;;;;;6197231;23;19916;-76
2022/12/03 02:40:14;;;;;;;37.22;15.02;;;5.90;99.90;;;;;;6138104;23;20021;-75
2022/12/03 02:42:43;;;;;;;27.58;12.65;;;5.30;99.90;;;;;;6171534;23;20042;-75
2022/12/03 02:45:20;;;;;;;37.13;14.98;;;5.30;99.90;;;;;;6137735;23;20017;-76
2022/12/03 02:47:53;;;;;;;38.17;14.68;;;5.40;99.90;;;;;;6198477;23;20049;-76
2022/12/03 02:50:25;;;;;;;38.92;15.23;;;5.40;99.90;;;;;;6136412;23;20032;-76
2022/12/03 02:52:57;;;;;;;30.45;14.13;;;5.30;99.90;;;;;;6173017;23;20322;-76
2022/12/03 02:55:26;;;;;;;30.90;13.43;;;5.30;99.90;;;;;;6194153;23;20017;-76
2022/12/03 02:58:02;;;;;;;33.45;14.73;;;6.70;99.90;;;;;;6161110;23;20024;-75
2022/12/03 03:00:31;;;;;;;34.08;13.77;;;6.00;99.90;;;;;;6162304;23;20024;-76
2022/12/03 03:03:02;;;;;;;24.95;11.60;;;5.40;99.90;;;;;;6136169;23;20032;-76
2022/12/03 03:05:30;;;;;;;32.80;12.95;;;5.30;99.90;;;;;;6172903;23;20326;-76
2022/12/03 03:07:59;;;;;;;24.00;12.20;;;5.40;99.90;;;;;;6188637;23;20444;-76
2022/12/03 03:10:28;;;;;;;25.17;11.82;;;8.10;99.90;;;;;;6160730;23;20013;-76
2022/12/03 03:12:55;;;;;;;27.67;12.20;;;5.40;99.90;;;;;;6188477;23;20013;-76
2022/12/03 03:15:24;;;;;;;29.02;11.50;;;5.40;99.90;;;;;;6162058;23;20017;-75
2022/12/03 03:17:51;;;;;;;28.45;11.15;;;5.40;99.90;;;;;;6136380;23;20339;-75
2022/12/03 03:20:19;;;;;;;28.40;10.52;;;5.40;99.90;;;;;;6162404;23;20016;-76
2022/12/03 03:22:47;;;;;;;28.17;10.35;;;5.40;99.90;;;;;;6161066;23;20020;-76
2022/12/03 03:25:19;;;;;;;32.78;10.98;;;6.40;99.90;;;;;;6188196;23;20009;-76
2022/12/03 03:27:47;;;;;;;24.75;9.68;;;5.60;99.90;;;;;;6172382;23;20340;-76
2022/12/03 03:30:15;;;;;;;22.85;9.85;;;5.50;99.90;;;;;;6161238;23;20013;-75
2022/12/03 03:32:43;;;;;;;26.38;9.13;;;5.50;99.90;;;;;;6162621;23;20021;-75
2022/12/03 03:35:12;;;;;;;20.65;7.57;;;5.50;99.90;;;;;;6188072;23;20024;-75
2022/12/03 03:37:41;;;;;;;25.55;9.55;;;6.60;99.90;;;;;;6196701;23;20013;-75
2022/12/03 03:40:08;;;;;;;;;;;5.50;99.90;;;;;;6162394;23;20311;-75
2022/12/03 03:42:37;;;;;;;24.85;9.43;;;5.40;99.90;;;;;;6187990;23;19924;-76
2022/12/03 03:45:06;;;;;;;27.20;9.32;;;7.10;99.90;;;;;;6162222;23;20009;-76
2022/12/03 03:47:34;;;;;;;25.73;9.32;;;5.50;99.90;;;;;;6172596;23;20291;-75
2022/12/03 03:50:02;;;;;;;24.50;9.57;;;7.60;99.90;;;;;;6136419;23;20021;-75
2022/12/03 03:52:30;;;;;;;19.00;8.45;;;5.50;99.90;;;;;;6188013;23;20013;-76
2022/12/03 03:54:58;;;;;;;19.27;9.05;;;5.90;99.90;;;;;;6187647;23;20021;-76
2022/12/03 03:57:25;;;;;;;26.08;8.85;;;6.70;99.90;;;;;;6160804;23;20422;-76
2022/12/03 03:59:53;;;;;;;20.95;9.43;;;5.50;99.90;;;;;;6162727;23;20031;-76
2022/12/03 04:02:23;;;;;;;26.08;9.77;;;5.70;99.90;;;;;;6162595;23;20406;-76
2022/12/03 04:04:50;;;;;;;27.20;9.13;;;5.50;99.90;;;;;;6186165;23;20013;-75
2022/12/03 04:07:18;;;;;;;20.23;8.85;;;5.50;99.90;;;;;;6161884;23;20441;-76
2022/12/03 04:09:46;;;;;;;26.65;9.30;;;5.70;99.90;;;;;;6160711;23;20310;-75
2022/12/03 04:14:59;;;;;;;19.60;8.13;;;5.50;99.90;;;;;;6197942;23;20017;-75
2022/12/03 04:17:27;;;;;;;22.65;9.20;;;5.50;99.90;;;;;;6196319;23;20013;-75
2022/12/03 04:19:55;;;;;;;24.92;9.60;;;5.60;99.90;;;;;;6161633;23;20028;-75
2022/12/03 04:22:40;;;;;;;27.95;10.15;;;7.70;99.90;;;;;;6162014;23;20017;-75
2022/12/03 04:30:51;;;;;;;26.48;9.75;;;5.50;99.90;;;;;;6160052;23;19927;-75
2022/12/03 04:36:06;;;;;;;28.33;11.45;;;5.40;99.90;;;;;;6196256;23;20024;-75
2022/12/03 04:38:34;;;;;;;26.55;12.18;;;5.40;99.90;;;;;;6187532;23;20020;-76
2022/12/03 04:41:05;;;;;;;33.17;11.32;;;6.20;99.90;;;;;;6161377;23;20036;-75
2022/12/03 04:44:31;;;;;;;26.38;11.68;;;6.70;99.90;;;;;;6136246;23;20021;-75
2022/12/03 04:46:21;;;;;;;28.75;11.65;;;7.80;99.90;;;;;;6187350;23;20013;-75
2022/12/03 04:48:49;;;;;;;27.67;12.20;;;5.40;99.90;;;;;;6112937;23;20032;-75
2022/12/03 04:51:16;;;;;;;32.28;12.80;;;5.40;99.90;;;;;;6186517;23;20013;-76
2022/12/03 04:53:44;;;;;;;28.45;13.25;;;5.40;99.90;;;;;;6137519;23;20017;-75
2022/12/03 04:56:12;;;;;;;32.15;13.27;;;5.40;99.90;;;;;;6160079;23;20304;-76
2022/12/03 04:58:40;;;;;;;36.22;14.50;;;7.30;99.90;;;;;;6187426;23;20028;-75
2022/12/03 05:01:07;;;;;;;35.05;15.20;;;5.30;99.90;;;;;;6187471;23;20211;-76
2022/12/03 05:03:35;;;;;;;39.92;14.68;;;5.20;99.90;;;;;;6160066;23;20017;-76
2022/12/03 05:06:05;;;;;;;35.15;15.43;;;5.30;99.90;;;;;;6137318;23;20013;-76
2022/12/03 05:08:33;;;;;;;39.45;15.90;;;5.30;99.90;;;;;;6187405;23;20018;-76
2022/12/03 05:11:00;;;;;;;42.83;17.20;;;5.20;99.90;;;;;;6186044;23;20024;-76
2022/12/03 05:13:28;;;;;;;39.30;16.45;;;5.20;99.90;;;;;;6161514;23;20024;-75
2022/12/03 05:15:55;;;;;;;40.33;16.25;;;5.20;99.90;;;;;;6197385;23;20017;-75
2022/12/03 05:18:23;;;;;;;44.90;17.73;;;7.30;99.90;;;;;;6187018;23;20013;-75
2022/12/03 05:20:51;;;;;;;43.28;18.08;;;5.50;99.90;;;;;;6187835;23;20350;-75
2022/12/03 05:23:20;;;;;;;45.42;19.08;;;6.50;99.90;;;;;;6159694;23;20017;-75
2022/12/03 05:25:47;;;;;;;46.65;18.67;;;5.00;99.90;;;;;;6171858;23;20020;-75
2022/12/03 05:28:15;;;;;;;45.67;18.95;;;7.10;99.90;;;;;;6161743;23;20013;-75
2022/12/03 05:30:42;;;;;;;44.15;18.83;;;5.10;99.90;;;;;;6186022;23;20326;-75
2022/12/03 05:33:10;;;;;;;41.42;18.38;;;5.00;99.90;;;;;;6161064;23;20032;-75
2022/12/03 05:35:38;;;;;;;41.38;17.38;;;5.10;99.90;;;;;;6197379;23;20171;-75
2022/12/03 05:38:06;;;;;;;52.13;19.33;;;5.10;99.90;;;;;;6135296;23;20021;-75
2022/12/03 05:40:33;;;;;;;45.95;17.58;;;5.50;99.90;;;;;;6161601;23;20017;-75
2022/12/03 05:43:01;;;;;;;47.70;18.02;;;5.10;99.90;;;;;;6137594;23;20016;-75
2022/12/03 05:45:30;;;;;;;41.05;18.08;;;6.60;99.90;;;;;;6173070;23;20017;-75
2022/12/03 05:47:58;;;;;;;43.83;18.45;;;5.10;99.90;;;;;;6139248;23;20021;-75
2022/12/03 05:50:28;;;;;;;47.40;18.08;;;5.10;99.90;;;;;;6187595;23;20024;-75
2022/12/03 05:52:57;;;;;;;43.72;17.85;;;7.10;99.90;;;;;;6189345;23;20021;-75
2022/12/03 05:55:25;;;;;;;;;;;5.10;99.90;;;;;;6163913;23;20318;-75
2022/12/03 05:57:52;;;;;;;;;;;5.20;99.90;;;;;;6162121;23;19916;-75
2022/12/03 06:00:21;;;;;;;39.38;15.90;;;5.20;99.90;;;;;;6189342;23;19923;-76
2022/12/03 06:02:48;;;;;;;48.78;17.17;;;5.20;99.90;;;;;;6161821;23;20028;-75
2022/12/03 06:05:20;;;;;;;42.78;17.65;;;5.50;99.90;;;;;;6163446;23;20017;-75
2022/12/03 06:07:49;;;;;;;42.33;16.67;;;5.20;99.90;;;;;;6173068;23;20020;-76
2022/12/03 06:10:20;;;;;;;44.70;17.70;;;5.20;99.90;;;;;;6161302;23;20027;-75
2022/12/03 06:12:48;;;;;;;40.72;16.80;;;5.20;99.90;;;;;;6163642;23;20013;-76
2022/12/03 06:15:16;;;;;;;41.33;16.55;;;7.40;99.90;;;;;;6138264;23;20046;-75
2022/12/03 06:17:44;;;;;;;35.65;15.50;;;5.20;99.90;;;;;;6136955;23;20016;-75
2022/12/03 06:20:13;;;;;;;43.40;15.82;;;5.30;99.90;;;;;;6163035;23;20449;-75
2022/12/03 06:22:41;;;;;;;33.85;15.13;;;5.30;99.90;;;;;;6161546;23;20009;-75
2022/12/03 06:25:09;;;;;;;37.83;14.43;;;5.60;99.90;;;;;;6188807;23;20013;-75
2022/12/03 06:27:37;;;;;;;34.60;14.07;;;5.30;99.90;;;;;;6173290;23;20021;-75
2022/12/03 06:30:07;;;;;;;34.45;14.95;;;5.30;99.90;;;;;;6161783;23;20021;-75
2022/12/03 06:32:35;;;;;;;37.65;13.82;;;5.40;99.90;;;;;;6138836;23;20017;-75
2022/12/03 06:35:03;;;;;;;39.40;15.07;;;5.40;99.90;;;;;;6188673;23;20021;-76
2022/12/03 06:37:30;;;;;;;28.23;11.73;;;5.40;99.90;;;;;;6197043;23;20009;-75
2022/12/03 06:39:58;;;;;;;27.80;12.38;;;5.40;99.90;;;;;;6163400;23;20024;-76
2022/12/03 06:42:25;;;;;;;32.80;12.80;;;5.40;99.90;;;;;;6188650;23;20009;-75
2022/12/03 06:44:53;;;;;;;35.08;12.82;;;7.20;99.90;;;;;;6136503;23;20013;-75
2022/12/03 06:47:21;;;;;;;;;;;5.40;99.90;;;;;;6173586;23;20013;-75
2022/12/03 06:49:48;;;;;;;27.17;12.52;;;5.50;99.90;;;;;;6136738;23;20401;-76
2022/12/03 06:52:16;;;;;;;32.50;13.20;;;7.80;99.90;;;;;;6188223;23;20024;-75
2022/12/03 06:54:44;;;;;;;31.80;13.68;;;5.50;99.90;;;;;;6188530;23;20023;-76
2022/12/03 06:57:11;;;;;;;31.60;13.73;;;5.40;99.90;;;;;;6196006;23;20310;-75
2022/12/03 06:59:39;;;;;;;35.05;13.15;;;5.40;99.90;;;;;;6137769;23;20017;-75
2022/12/03 07:02:06;;;;;;;30.38;13.20;;;5.50;99.90;;;;;;6162863;23;20419;-75
2022/12/03 07:04:34;;;;;;;25.60;11.65;;;7.60;99.90;;;;;;6160802;23;20016;-75
2022/12/03 07:07:02;;;;;;;31.38;12.43;;;7.50;99.90;;;;;;6198418;23;20306;-75
2022/12/03 07:09:29;;;;;;;32.63;12.93;;;6.50;99.90;;;;;;6186723;23;20014;-75
2022/12/03 07:11:57;;;;;;;35.38;12.57;;;5.50;99.90;;;;;;6162646;23;20025;-75
2022/12/03 07:14:25;;;;;;;32.30;11.70;;;7.30;99.90;;;;;;6138588;23;20017;-75
2022/12/03 07:16:52;;;;;;;26.85;11.05;;;6.40;99.90;;;;;;6170872;23;20028;-75
2022/12/03 07:19:20;;;;;;;27.63;10.77;;;5.70;99.90;;;;;;6188068;23;20013;-75
2022/12/03 07:21:47;;;;;;;28.55;11.57;;;6.30;99.90;;;;;;6162841;23;20315;-76
2022/12/03 07:24:16;;;;;;;26.48;10.45;;;5.40;99.90;;;;;;6136617;23;20032;-75
2022/12/03 07:26:43;;;;;;;24.83;10.77;;;4.40;99.90;;;;;;6137840;23;20331;-75
2022/12/03 07:29:12;;;;;;;24.05;10.98;;;7.50;99.90;;;;;;6162532;23;20013;-75
2022/12/03 07:31:39;;;;;;;28.52;11.68;;;5.50;99.90;;;;;;6135876;23;20029;-75
2022/12/03 07:34:07;;;;;;;23.63;10.55;;;6.40;99.90;;;;;;6138188;23;20024;-75
2022/12/03 07:36:35;;;;;;;24.08;10.70;;;5.40;99.90;;;;;;6170565;23;20024;-75
2022/12/03 07:39:02;;;;;;;25.95;10.13;;;6.20;99.90;;;;;;6161891;23;20306;-76
2022/12/03 07:41:30;;;;;;;25.15;10.75;;;5.50;99.90;;;;;;6187057;23;20308;-75
2022/12/03 07:43:57;;;;;;;24.50;10.95;;;5.90;99.90;;;;;;6160616;23;20017;-75
2022/12/03 07:46:25;;;;;;;26.50;10.10;;;7.50;99.90;;;;;;6137392;23;20318;-75
2022/12/03 07:48:53;;;;;;;26.70;9.60;;;5.50;99.90;;;;;;6162306;23;20326;-75
2022/12/03 07:51:20;;;;;;;23.60;9.77;;;7.80;99.90;;;;;;6160323;23;20291;-75
2022/12/03 07:53:51;;;;;;;23.35;10.18;;;5.90;99.90;;;;;;6187058;23;20016;-75
2022/12/03 07:56:19;;;;;;;31.27;9.57;;;5.50;99.90;;;;;;6164169;23;20308;-76
2022/12/03 07:58:48;;;;;;;24.85;10.15;;;6.60;99.90;;;;;;6187581;23;20318;-75
2022/12/03 08:01:16;;;;;;;21.00;9.60;;;6.10;99.90;;;;;;6162234;23;20028;-75
2022/12/03 08:03:44;;;;;;;19.98;9.70;;;5.90;99.90;;;;;;6160682;23;20013;-76
2022/12/03 08:06:12;;;;;;;21.80;9.38;;;5.20;99.90;;;;;;6161862;23;20017;-75
2022/12/03 08:08:39;;;;;;;;;;;5.50;99.90;;;;;;6162694;23;20311;-75
2022/12/03 08:11:12;;;;;;;30.92;9.10;;;5.50;99.90;;;;;;6160815;23;19916;-76
2022/12/03 08:13:40;;;;;;;29.60;9.32;;;5.50;99.90;;;;;;6172502;23;20021;-75
2022/12/03 08:16:17;;;;;;;24.08;9.65;;;5.50;99.90;;;;;;6161031;23;20028;-77
2022/12/03 08:18:46;;;;;;;24.00;9.48;;;5.50;99.90;;;;;;6161445;23;20021;-77
2022/12/03 08:21:17;;;;;;;24.95;9.02;;;5.60;99.90;;;;;;6161747;23;20020;-78
2022/12/03 08:23:44;;;;;;;22.27;8.77;;;6.50;99.90;;;;;;6195543;23;20009;-78
2022/12/03 08:26:27;;;;;;;22.08;9.52;;;6.00;99.90;;;;;;6196937;23;20028;-77
2022/12/03 08:28:54;;;;;;;21.80;7.97;;;7.60;99.90;;;;;;6198152;23;20021;-78
2022/12/03 08:31:25;;;;;;;23.88;8.98;;;7.60;99.90;;;;;;6135956;23;20013;-77
2022/12/03 08:34:18;;;;;;;22.33;8.02;;;6.00;99.90;;;;;;6171336;23;20021;-78
2022/12/03 08:36:49;;;;;;;22.45;8.77;;;5.60;99.90;;;;;;6185481;23;20017;-78
2022/12/03 08:39:32;;;;;;;24.77;8.38;;;6.40;99.90;;;;;;6171915;23;20318;-78
2022/12/03 08:45:27;;;;;;;25.63;8.95;;;5.60;99.90;;;;;;6197283;23;20024;-78
2022/12/03 08:47:56;;;;;;;23.35;8.68;;;5.70;99.90;;;;;;6186952;23;20013;-78
2022/12/03 08:50:32;;;;;;;21.67;8.40;;;5.70;99.90;;;;;;6160249;23;20017;-78
2022/12/03 08:53:31;;;;;;;26.58;9.20;;;6.30;99.90;;;;;;6197087;23;20013;-78
2022/12/03 08:56:10;;;;;;;22.52;8.45;;;5.80;99.90;;;;;;6136689;23;20453;-77
2022/12/03 08:58:45;;;;;;;20.67;7.88;;;5.70;99.90;;;;;;6146862;23;20016;-78
2022/12/03 09:01:12;;;;;;;22.70;8.82;;;5.80;99.90;;;;;;6170855;23;20009;-77
2022/12/03 09:03:50;;;;;;;25.15;8.25;;;8.50;99.90;;;;;;6160597;23;20024;-77
2022/12/03 09:06:18;;;;;;;22.70;8.73;;;8.20;99.90;;;;;;6171323;23;20407;-78
2022/12/03 09:08:53;;;;;;;27.95;8.82;;;5.80;99.90;;;;;;6161569;23;20017;-77
2022/12/03 09:11:21;;;;;;;21.77;8.95;;;5.80;99.90;;;;;;6195855;23;20036;-78
2022/12/03 09:13:48;;;;;;;18.63;8.07;;;7.30;99.90;;;;;;6161464;23;20017;-77
2022/12/03 09:16:21;;;;;;;26.02;7.93;;;7.00;99.90;;;;;;6185835;23;20465;-78
2022/12/03 09:18:49;;;;;;;22.92;8.25;;;6.00;99.90;;;;;;6198752;23;20017;-78
2022/12/03 09:21:21;;;;;;;25.50;7.97;;;6.20;99.90;;;;;;6189064;23;20013;-77
2022/12/03 09:23:49;;;;;;;18.00;7.40;;;6.10;99.90;;;;;;6188163;23;20016;-78
2022/12/03 09:26:24;;;;;;;21.52;8.02;;;7.10;99.90;;;;;;6173272;23;20310;-77
2022/12/03 09:28:52;;;;;;;23.58;8.90;;;6.40;99.90;;;;;;6163881;23;20017;-77
2022/12/03 09:31:19;;;;;;;27.10;7.30;;;6.10;99.90;;;;;;6162461;23;20322;-77
2022/12/03 09:33:47;;;;;;;19.27;7.03;;;6.00;99.90;;;;;;6163020;23;20445;-77
2022/12/03 09:36:15;;;;;;;21.52;6.72;;;7.50;99.90;;;;;;6113718;23;20017;-77
2022/12/03 09:38:50;;;;;;;17.13;7.60;;;8.00;99.90;;;;;;6163714;23;20098;-78
2022/12/03 09:41:25;;;;;;;17.20;7.20;;;6.20;99.90;;;;;;6173535;23;20020;-78
2022/12/03 09:43:57;;;;;;;18.98;7.38;;;5.10;99.90;;;;;;6161987;23;20020;-77
2022/12/03 09:46:36;;;;;;;17.23;7.55;;;8.70;99.90;;;;;;6199013;23;20322;-79
2022/12/03 09:49:06;;;;;;;24.75;7.15;;;7.30;99.90;;;;;;6163490;23;20426;-78
2022/12/03 09:51:43;;;;;;;19.80;7.22;;;8.50;99.90;;;;;;6172424;23;20434;-78
2022/12/03 09:54:23;;;;;;;19.40;6.90;;;6.50;99.90;;;;;;6188966;23;20047;-77
2022/12/03 09:56:52;;;;;;;20.17;7.13;;;8.50;99.90;;;;;;6163104;23;20016;-78
2022/12/03 09:59:30;;;;;;;;;;;6.40;99.90;;;;;;6163334;23;20013;-77
2022/12/03 10:02:01;;;;;;;17.15;6.20;;;6.50;99.90;;;;;;6189283;23;20313;-78
2022/12/03 10:04:29;;;;;;;18.23;6.65;;;6.50;99.90;;;;;;6171948;23;20009;-78
2022/12/03 10:06:58;;;;;;;17.05;6.97;;;8.20;99.90;;;;;;6197973;23;20013;-77
2022/12/03 10:09:27;;;;;;;20.08;6.65;;;8.60;99.90;;;;;;6187323;23;20020;-77
2022/12/03 10:11:57;;;;;;;23.85;6.78;;;7.50;99.90;;;;;;6163051;23;20322;-78
2022/12/03 10:14:32;;;;;;;17.67;6.22;;;8.40;99.90;;;;;;6188604;23;20448;-78
2022/12/03 10:17:00;;;;;;;18.92;6.93;;;6.80;99.90;;;;;;6161889;23;20021;-77
2022/12/03 10:19:30;;;;;;;14.20;6.55;;;8.90;99.90;;;;;;6188702;23;20020;-77
2022/12/03 10:21:58;;;;;;;19.90;6.53;;;9.00;99.90;;;;;;6163184;23;20013;-77
2022/12/03 10:24:33;;;;;;;15.48;6.50;;;6.90;99.90;;;;;;6136732;23;20028;-77
2022/12/03 10:27:21;;;;;;;15.95;7.00;;;5.80;99.90;;;;;;6138491;23;20028;-78
2022/12/03 10:30:00;;;;;;;14.68;6.32;;;7.00;99.90;;;;;;6171870;23;20013;-77
2022/12/03 10:32:42;;;;;;;18.02;7.32;;;9.20;99.90;;;;;;6199196;23;20021;-77
2022/12/03 10:35:22;;;;;;;16.83;6.80;;;7.50;99.90;;;;;;6198454;23;20021;-77
2022/12/03 10:38:21;;;;;;;20.15;6.70;;;8.70;99.90;;;;;;6171923;23;20017;-77
2022/12/03 10:40:49;;;;;;;22.83;6.75;;;7.00;99.90;;;;;;6199004;23;20016;-78
2022/12/03 10:43:25;;;;;;;16.55;7.07;;;7.20;99.90;;;;;;6160799;23;20021;-77
2022/12/03 10:46:02;;;;;;;19.52;6.53;;;8.70;99.90;;;;;;6138531;23;20427;-77
2022/12/03 10:48:31;;;;;;;19.23;6.80;;;7.20;99.90;;;;;;6198672;23;20009;-78
2022/12/03 10:51:05;;;;;;;21.92;7.10;;;9.40;99.90;;;;;;6187036;23;20441;-77
2022/12/03 10:53:35;;;;;;;19.38;6.57;;;7.20;99.90;;;;;;6198857;23;20021;-78
2022/12/03 10:56:13;;;;;;;15.27;6.40;;;7.30;99.90;;;;;;6136614;23;20025;-77
2022/12/03 10:58:41;;;;;;;27.67;7.65;;;7.40;99.90;;;;;;6196841;23;20016;-78
2022/12/03 11:01:24;;;;;;;20.75;7.97;;;9.00;99.90;;;;;;6162209;23;20013;-78
2022/12/03 11:04:01;;;;;;;17.02;7.25;;;7.30;99.90;;;;;;6136530;23;20024;-78
2022/12/03 11:06:31;;;;;;;20.53;7.10;;;7.50;99.90;;;;;;6172342;23;20024;-78
2022/12/03 11:09:00;;;;;;;20.60;7.10;;;8.40;99.90;;;;;;6161449;23;20017;-79
2022/12/03 11:11:42;;;;;;;18.08;7.47;;;7.70;99.90;;;;;;6172528;23;20020;-78
2022/12/03 11:14:12;;;;;;;23.30;6.95;;;7.60;99.90;;;;;;6148179;23;20061;-78
2022/12/03 11:17:05;;;;;;;18.00;7.28;;;7.60;99.90;;;;;;6185634;23;20021;-78
2022/12/03 11:19:41;;;;;;;23.05;7.72;;;8.60;99.90;;;;;;6137685;23;20017;-78
2022/12/03 11:22:11;;;;;;;24.73;7.38;;;7.40;99.90;;;;;;6172579;23;20013;-78
2022/12/03 11:24:39;;;;;;;21.42;7.18;;;5.30;99.90;;;;;;6187200;23;20318;-78
2022/12/03 11:27:08;;;;;;;20.92;6.82;;;7.70;99.90;;;;;;6172124;23;20016;-78
2022/12/03 11:29:52;;;;;;;19.63;7.00;;;9.20;99.90;;;;;;6161500;23;20310;-77
2022/12/03 11:32:41;;;;;;;16.40;5.88;;;8.90;99.90;;;;;;6161530;23;20021;-78
2022/12/03 11:35:23;;;;;;;22.35;6.43;;;7.30;99.90;;;;;;6137798;23;20021;-79
2022/12/03 11:37:51;;;;;;;20.02;7.45;;;7.30;99.90;;;;;;6187054;23;20028;-75
2022/12/03 11:40:19;;;;;;;13.70;6.30;;;7.30;99.90;;;;;;6187931;23;20318;-76
2022/12/03 11:42:47;;;;;;;18.05;6.50;;;7.30;99.90;;;;;;6133322;23;20422;-76
2022/12/03 11:45:22;;;;;;;22.13;6.95;;;7.30;99.90;;;;;;6185957;23;20013;-78
2022/12/03 11:48:01;;;;;;;16.13;6.40;;;7.40;99.90;;;;;;6197763;23;20013;-76
2022/12/03 11:50:35;;;;;;;15.75;6.22;;;9.90;99.90;;;;;;6160677;23;20315;-74
2022/12/03 11:53:06;;;;;;;23.27;6.80;;;9.00;99.90;;;;;;6172649;23;20017;-77
2022/12/03 11:55:47;;;;;;;19.02;6.45;;;7.60;99.90;;;;;;6167553;23;20029;-75
2022/12/03 11:58:17;;;;;;;16.88;6.53;;;7.50;99.90;;;;;;6195994;23;20024;-75
2022/12/03 12:00:54;;;;;;;25.30;7.05;;;9.50;99.90;;;;;;6112980;23;20029;-74
2022/12/03 12:03:32;;;;;;;22.00;7.10;;;9.10;99.90;;;;;;6196638;23;20016;-74
2022/12/03 12:06:09;;;;;;;21.05;6.90;;;7.60;99.90;;;;;;6198065;23;20009;-74
2022/12/03 12:08:50;;;;;;;22.48;6.85;;;9.10;99.90;;;;;;6137372;23;20017;-76
2022/12/03 12:11:19;;;;;;;19.45;6.97;;;7.70;99.90;;;;;;6196281;23;20017;-74
2022/12/03 12:13:55;;;;;;;15.68;6.85;;;7.80;99.90;;;;;;6162190;23;20359;-72
2022/12/03 12:16:49;;;;;;;22.30;7.63;;;7.80;99.90;;;;;;6135953;23;20021;-72
2022/12/03 12:19:31;;;;;;;19.80;7.55;;;8.00;99.90;;;;;;6176897;23;20021;-78
2022/12/03 12:22:29;;;;;;;17.95;7.90;;;7.80;99.90;;;;;;6196398;23;20035;-75
2022/12/03 12:25:01;;;;;;;27.27;7.90;;;7.80;99.90;;;;;;6185279;23;20009;-66
2022/12/03 12:27:48;;;;;;;18.90;7.93;;;8.40;99.90;;;;;;6161689;23;20017;-77
2022/12/03 12:30:18;;;;;;;18.80;7.78;;;7.90;99.90;;;;;;6196541;23;20016;-74
2022/12/03 12:32:46;;;;;;;22.33;8.60;;;7.90;99.90;;;;;;6197356;23;20024;-75
2022/12/03 12:35:22;;;;;;;21.42;8.52;;;8.00;99.90;;;;;;6187607;23;20024;-77
2022/12/03 12:37:52;;;;;;;22.67;10.02;;;9.70;99.90;;;;;;6196160;23;20013;-76
2022/12/03 12:40:31;;;;;;;25.55;11.00;;;8.10;99.90;;;;;;6162299;23;20300;-74
2022/12/03 12:43:13;;;;;;;28.67;12.05;;;8.10;99.90;;;;;;6170454;23;20294;-75
2022/12/03 12:45:54;;;;;;;27.73;12.07;;;8.60;99.90;;;;;;6163765;23;20073;-75
2022/12/03 12:48:23;;;;;;;26.45;12.48;;;8.10;99.90;;;;;;6171348;23;20427;-75
2022/12/03 12:51:00;;;;;;;30.38;12.98;;;8.10;99.90;;;;;;6186374;23;20311;-74
2022/12/03 12:53:33;;;;;;;29.40;12.32;;;8.00;99.90;;;;;;6161962;23;20028;-74
2022/12/03 12:56:05;;;;;;;27.08;12.45;;;7.90;99.90;;;;;;6165098;23;20021;-75
2022/12/03 12:58:33;;;;;;;29.17;13.07;;;7.90;99.90;;;;;;6197371;23;20315;-76
2022/12/03 13:01:06;;;;;;;29.73;13.32;;;7.80;99.90;;;;;;6187325;23;20020;-75
2022/12/03 13:03:38;;;;;;;29.25;13.30;;;7.80;99.90;;;;;;6169864;23;20028;-77
2022/12/03 13:06:09;;;;;;;31.17;13.48;;;7.80;99.90;;;;;;6172337;23;20021;-75
2022/12/03 13:08:41;;;;;;;29.63;13.77;;;8.70;99.90;;;;;;6137299;23;20024;-75
2022/12/03 13:11:50;;;;;;;25.95;13.30;;;8.40;99.90;;;;;;6196046;23;20043;-75
2022/12/03 13:14:23;;;;;;;29.70;13.60;;;7.80;99.90;;;;;;6187575;23;20013;-77
2022/12/03 13:16:52;;;;;;;32.53;13.95;;;7.80;99.90;;;;;;6196198;23;20024;-74
2022/12/03 13:19:21;;;;;;;30.98;14.25;;;8.20;99.90;;;;;;6161965;23;20017;-74